Time;durP1;ratioP1;P1;durP2;ratioP2;P2;SDS_P1;SDS_P2;PMS_P1;PMS_P2;Temp;Humidity;BMP_temperature;BMP_pressure;BME280_temperature;BME280_humidity;BME280_pressure;Samples;Min_cycle;Max_cycle;Signal;HPM_P1;HPM_P2
2023/09/15 00:00:20;;;;;;;3.13;2.80;;;13.30;99.90;;;;;;5082959;28;20632;-74
2023/09/15 00:02:47;;;;;;;1.90;1.80;;;13.30;99.90;;;;;;5084150;28;21253;-74
2023/09/15 00:05:14;;;;;;;3.00;2.60;;;13.40;99.90;;;;;;5082665;28;20624;-73
2023/09/15 00:07:42;;;;;;;2.73;2.50;;;13.40;99.90;;;;;;5082816;28;20660;-73
2023/09/15 00:10:11;;;;;;;2.43;2.23;;;13.40;99.90;;;;;;5082690;28;20667;-73
2023/09/15 00:12:38;;;;;;;2.63;2.43;;;13.40;99.90;;;;;;5083386;28;20634;-73
2023/09/15 00:15:07;;;;;;;2.50;2.20;;;13.30;99.90;;;;;;5082123;28;20648;-73
2023/09/15 00:17:36;;;;;;;2.67;2.47;;;13.30;99.90;;;;;;5082169;28;20624;-74
2023/09/15 00:20:08;;;;;;;3.77;2.43;;;13.30;99.90;;;;;;5082619;28;20627;-73
2023/09/15 00:22:35;;;;;;;2.90;2.10;;;13.20;99.90;;;;;;5083355;28;20736;-74
2023/09/15 00:25:03;;;;;;;2.23;2.03;;;13.20;99.90;;;;;;5082506;28;21089;-74
2023/09/15 00:27:32;;;;;;;2.93;2.63;;;13.20;99.90;;;;;;5082047;28;20681;-74
2023/09/15 00:29:58;;;;;;;2.97;2.27;;;13.20;99.90;;;;;;5082043;28;21812;-74
2023/09/15 00:32:25;;;;;;;2.37;2.17;;;13.20;99.90;;;;;;5082638;28;20652;-74
2023/09/15 00:34:53;;;;;;;2.43;2.00;;;13.20;99.90;;;;;;5082156;28;20625;-74
2023/09/15 00:37:20;;;;;;;3.23;2.30;;;13.20;99.90;;;;;;5081485;28;20621;-74
2023/09/15 00:39:47;;;;;;;2.43;2.10;;;13.20;99.90;;;;;;5082448;28;20916;-74
2023/09/15 00:42:14;;;;;;;2.90;2.43;;;13.10;99.90;;;;;;5082433;28;21567;-74
2023/09/15 00:44:40;;;;;;;2.23;2.03;;;13.00;99.90;;;;;;5081467;28;20630;-74
2023/09/15 00:47:07;;;;;;;2.17;2.03;;;13.00;99.90;;;;;;5083136;28;20631;-74
2023/09/15 00:49:34;;;;;;;2.43;2.23;;;13.00;99.90;;;;;;5081673;28;20633;-74
2023/09/15 00:52:04;;;;;;;2.30;2.10;;;13.10;99.90;;;;;;5081201;28;20632;-74
2023/09/15 00:54:32;;;;;;;2.90;2.53;;;13.10;99.90;;;;;;5080450;28;20637;-73
2023/09/15 00:56:59;;;;;;;2.23;2.03;;;13.10;99.90;;;;;;5081773;28;20956;-73
2023/09/15 00:59:26;;;;;;;3.90;2.30;;;13.10;99.90;;;;;;5082506;28;20624;-74
2023/09/15 01:01:54;;;;;;;3.23;2.93;;;13.10;99.90;;;;;;5081610;28;21206;-75
2023/09/15 01:04:22;;;;;;;3.00;2.70;;;13.10;99.90;;;;;;5080761;28;20632;-74
2023/09/15 01:06:50;;;;;;;2.40;1.80;;;13.00;99.90;;;;;;5081029;28;21276;-74
2023/09/15 01:09:19;;;;;;;3.53;2.40;;;13.00;99.90;;;;;;5080926;28;20629;-74
2023/09/15 01:11:46;;;;;;;7.33;2.30;;;13.00;99.90;;;;;;5081061;28;20657;-74
2023/09/15 01:14:14;;;;;;;4.63;2.83;;;13.00;99.90;;;;;;5080875;28;20627;-74
2023/09/15 01:16:47;;;;;;;4.43;2.60;;;13.00;99.90;;;;;;5080675;28;20628;-74
2023/09/15 01:19:35;;;;;;;5.43;3.07;;;13.00;99.90;;;;;;5080747;28;21180;-74
2023/09/15 01:22:24;;;;;;;2.70;1.80;;;13.00;99.90;;;;;;5082603;28;20631;-73
2023/09/15 01:25:23;;;;;;;8.00;2.77;;;13.00;99.90;;;;;;5081593;28;21105;-74
2023/09/15 01:28:03;;;;;;;3.23;2.30;;;13.00;99.90;;;;;;5080722;28;21238;-73
2023/09/15 01:30:33;;;;;;;2.43;2.23;;;12.90;99.90;;;;;;5080906;28;20645;-74
2023/09/15 01:33:05;;;;;;;2.50;2.23;;;12.90;99.90;;;;;;5082587;28;21227;-74
2023/09/15 01:35:33;;;;;;;3.13;2.40;;;13.00;99.90;;;;;;5081403;28;20986;-73
2023/09/15 01:38:01;;;;;;;2.97;2.70;;;13.00;99.90;;;;;;5080987;28;20624;-73
2023/09/15 01:40:30;;;;;;;1.97;1.87;;;13.00;99.90;;;;;;5079560;28;20648;-74
2023/09/15 01:42:57;;;;;;;2.43;2.20;;;12.90;99.90;;;;;;5081090;28;21034;-74
2023/09/15 01:45:25;;;;;;;2.33;2.10;;;12.90;99.90;;;;;;5080490;28;20702;-74
2023/09/15 01:47:55;;;;;;;2.30;2.10;;;12.90;99.90;;;;;;5082338;28;20630;-74
2023/09/15 01:50:22;;;;;;;3.33;2.70;;;12.80;99.90;;;;;;5081169;28;20648;-74
2023/09/15 01:52:51;;;;;;;2.57;2.37;;;12.70;99.90;;;;;;5081883;28;21206;-74
2023/09/15 01:55:20;;;;;;;3.97;2.60;;;12.70;99.90;;;;;;5080854;28;20632;-74
2023/09/15 01:57:47;;;;;;;3.23;2.70;;;12.70;99.90;;;;;;5081164;28;20730;-74
2023/09/15 02:00:14;;;;;;;2.50;2.30;;;12.70;99.90;;;;;;5080554;28;20767;-74
2023/09/15 02:02:41;;;;;;;2.40;2.20;;;12.60;99.90;;;;;;5080691;28;20712;-74
2023/09/15 02:05:15;;;;;;;3.10;2.30;;;12.60;99.90;;;;;;5080698;28;21159;-74
2023/09/15 02:07:42;;;;;;;2.00;1.80;;;12.60;99.90;;;;;;5081809;28;20621;-74
2023/09/15 02:10:09;;;;;;;2.13;1.87;;;12.60;99.90;;;;;;5081803;28;21410;-73
2023/09/15 02:12:36;;;;;;;2.70;2.00;;;12.60;99.90;;;;;;5082003;28;20638;-74
2023/09/15 02:15:03;;;;;;;3.13;2.83;;;12.60;99.90;;;;;;5080720;28;20631;-74
2023/09/15 02:17:30;;;;;;;3.70;2.90;;;12.60;99.90;;;;;;5081528;28;20770;-73
2023/09/15 02:19:58;;;;;;;2.37;2.03;;;12.60;99.90;;;;;;5082221;28;20720;-74
2023/09/15 02:22:26;;;;;;;3.50;2.80;;;12.60;99.90;;;;;;5081526;28;21163;-74
2023/09/15 02:24:55;;;;;;;2.97;2.77;;;12.60;99.90;;;;;;5079907;28;20633;-74
2023/09/15 02:27:22;;;;;;;2.80;2.47;;;12.50;99.90;;;;;;5083272;28;21057;-74
2023/09/15 02:29:51;;;;;;;2.33;2.13;;;12.50;99.90;;;;;;5085285;28;20638;-73
2023/09/15 02:32:19;;;;;;;3.17;2.87;;;12.60;99.90;;;;;;5084146;28;20628;-73
2023/09/15 02:34:46;;;;;;;2.40;2.20;;;12.60;99.90;;;;;;5084155;28;20661;-73
2023/09/15 02:37:15;;;;;;;3.10;2.53;;;12.60;99.90;;;;;;5084102;28;20751;-73
2023/09/15 02:39:43;;;;;;;2.70;2.20;;;12.60;99.90;;;;;;5084441;28;21647;-73
2023/09/15 02:42:12;;;;;;;2.50;2.30;;;12.50;99.90;;;;;;5084389;28;20652;-73
2023/09/15 02:44:40;;;;;;;3.43;2.03;;;12.50;99.90;;;;;;5085170;28;20620;-73
2023/09/15 02:47:10;;;;;;;3.83;2.37;;;12.50;99.90;;;;;;5084529;28;21205;-73
2023/09/15 02:49:38;;;;;;;3.10;2.80;;;12.50;99.90;;;;;;5083537;28;20714;-73
2023/09/15 02:52:06;;;;;;;3.53;2.10;;;12.50;99.90;;;;;;5084818;28;20628;-73
2023/09/15 02:54:36;;;;;;;3.03;2.60;;;12.50;99.90;;;;;;5084242;28;20735;-73
2023/09/15 02:57:05;;;;;;;2.93;2.53;;;12.50;99.90;;;;;;5085142;28;21276;-72
2023/09/15 02:59:32;;;;;;;2.73;2.40;;;12.50;99.90;;;;;;5084414;28;21260;-73
2023/09/15 03:01:59;;;;;;;2.73;2.50;;;12.40;99.90;;;;;;5083533;28;20648;-73
2023/09/15 03:04:26;;;;;;;2.47;2.20;;;12.40;99.90;;;;;;5083167;28;20624;-72
2023/09/15 03:06:53;;;;;;;2.60;2.40;;;12.40;99.90;;;;;;5085081;28;21003;-72
2023/09/15 03:09:20;;;;;;;3.00;2.17;;;12.30;99.90;;;;;;5083650;28;20644;-73
2023/09/15 03:11:47;;;;;;;2.83;2.50;;;12.30;99.90;;;;;;5083075;28;22223;-73
2023/09/15 03:14:18;;;;;;;2.60;2.40;;;12.30;99.90;;;;;;5082496;28;20625;-73
2023/09/15 03:16:45;;;;;;;5.67;3.50;;;12.30;99.90;;;;;;5084258;28;20632;-73
2023/09/15 03:19:11;;;;;;;6.17;2.27;;;12.30;99.90;;;;;;5084738;28;20635;-73
2023/09/15 03:21:39;;;;;;;2.70;2.50;;;12.30;99.90;;;;;;5084148;28;20660;-72
2023/09/15 03:24:06;;;;;;;3.63;2.93;;;12.40;99.90;;;;;;5083423;28;20633;-73
2023/09/15 03:26:35;;;;;;;2.90;2.60;;;12.30;99.90;;;;;;5082645;28;20638;-73
2023/09/15 03:29:02;;;;;;;3.87;2.90;;;12.20;99.90;;;;;;5083495;28;20644;-73
2023/09/15 03:31:30;;;;;;;3.67;3.03;;;12.20;99.90;;;;;;5083598;28;20629;-72
2023/09/15 03:33:56;;;;;;;3.97;2.63;;;12.20;99.90;;;;;;5083867;28;20659;-73
2023/09/15 03:36:26;;;;;;;2.70;2.10;;;12.10;99.90;;;;;;5081707;28;20643;-72
2023/09/15 03:38:52;;;;;;;2.67;2.47;;;12.20;99.90;;;;;;5082956;28;21339;-73
2023/09/15 03:41:19;;;;;;;2.53;2.33;;;12.20;99.90;;;;;;5084751;28;20655;-73
2023/09/15 03:43:46;;;;;;;2.10;1.90;;;12.20;99.90;;;;;;5084463;28;21123;-73
2023/09/15 03:46:13;;;;;;;2.90;2.20;;;12.20;99.90;;;;;;5082287;28;21428;-73
2023/09/15 03:48:41;;;;;;;2.63;2.43;;;12.20;99.90;;;;;;5083114;28;20634;-73
2023/09/15 03:51:09;;;;;;;3.50;2.90;;;12.20;99.90;;;;;;5083782;28;20633;-73
2023/09/15 03:53:38;;;;;;;3.67;2.57;;;12.20;99.90;;;;;;5081290;28;20993;-73
2023/09/15 03:56:05;;;;;;;2.17;2.07;;;12.10;99.90;;;;;;5079969;28;20659;-73
2023/09/15 03:58:32;;;;;;;6.00;2.77;;;12.10;99.90;;;;;;5081835;28;21013;-73
2023/09/15 04:00:59;;;;;;;2.40;2.20;;;12.10;99.90;;;;;;5081690;28;20652;-73
2023/09/15 04:03:26;;;;;;;3.73;2.40;;;12.20;99.90;;;;;;5082201;28;20632;-73
2023/09/15 04:05:57;;;;;;;2.37;2.17;;;12.10;99.90;;;;;;5082768;28;20626;-73
2023/09/15 04:08:24;;;;;;;3.87;2.27;;;12.00;99.90;;;;;;5080376;28;20641;-73
2023/09/15 04:10:51;;;;;;;3.67;3.17;;;12.00;99.90;;;;;;5076757;28;20628;-73
2023/09/15 04:13:17;;;;;;;2.70;2.50;;;12.00;99.90;;;;;;5077428;28;20966;-73
2023/09/15 04:15:44;;;;;;;3.57;2.70;;;11.90;99.90;;;;;;5073420;28;20993;-73
2023/09/15 04:18:11;;;;;;;3.10;2.40;;;11.90;99.90;;;;;;5082860;28;21062;-73
2023/09/15 04:20:38;;;;;;;2.90;2.70;;;12.00;99.90;;;;;;5079142;28;21034;-73
2023/09/15 04:23:06;;;;;;;3.23;2.07;;;12.00;99.90;;;;;;5081214;28;20632;-73
2023/09/15 04:25:33;;;;;;;2.93;2.60;;;12.00;99.90;;;;;;5081046;28;21211;-74
2023/09/15 04:28:00;;;;;;;3.80;3.50;;;12.00;99.90;;;;;;5082255;28;20640;-73
2023/09/15 04:30:27;;;;;;;3.33;3.03;;;12.00;99.90;;;;;;5081312;28;21447;-73
2023/09/15 04:32:53;;;;;;;3.37;2.97;;;12.00;99.90;;;;;;5080438;28;20631;-73
2023/09/15 04:35:20;;;;;;;3.37;2.27;;;11.90;99.90;;;;;;5080985;28;20629;-73
2023/09/15 04:37:47;;;;;;;4.40;3.33;;;12.00;99.90;;;;;;5081536;28;20652;-75
2023/09/15 04:40:15;;;;;;;3.23;3.00;;;12.00;99.90;;;;;;5079872;28;20628;-82
2023/09/15 04:42:42;;;;;;;4.47;2.53;;;11.90;99.90;;;;;;5080977;28;20655;-82
2023/09/15 04:45:09;;;;;;;2.93;2.70;;;11.90;99.90;;;;;;5080500;28;20992;-81
2023/09/15 04:47:37;;;;;;;4.47;3.50;;;11.90;99.90;;;;;;5082146;28;20624;-80
2023/09/15 04:50:06;;;;;;;3.20;2.90;;;12.00;99.90;;;;;;5082655;28;20624;-80
2023/09/15 04:52:32;;;;;;;3.87;3.57;;;12.00;99.90;;;;;;5082348;28;21200;-80
2023/09/15 04:54:59;;;;;;;3.27;2.97;;;11.80;99.90;;;;;;5081669;28;20712;-80
2023/09/15 04:57:27;;;;;;;3.20;2.63;;;12.00;99.90;;;;;;5082328;28;20624;-80
2023/09/15 04:59:55;;;;;;;4.00;3.00;;;12.00;99.90;;;;;;5082495;28;20629;-80
2023/09/15 05:02:23;;;;;;;2.77;2.60;;;12.00;99.90;;;;;;5083028;28;20652;-80
2023/09/15 05:04:51;;;;;;;3.30;2.67;;;12.00;99.90;;;;;;5082569;28;21475;-80
2023/09/15 05:07:18;;;;;;;4.23;2.80;;;12.00;99.90;;;;;;5082375;28;21224;-78
2023/09/15 05:09:45;;;;;;;4.30;2.40;;;12.00;99.90;;;;;;5081236;28;21225;-79
2023/09/15 05:12:12;;;;;;;2.57;2.37;;;12.00;99.90;;;;;;5082459;28;20620;-78
2023/09/15 05:14:40;;;;;;;2.50;2.20;;;12.00;99.90;;;;;;5079682;28;21232;-80
2023/09/15 05:17:07;;;;;;;5.00;3.17;;;12.00;99.90;;;;;;5080696;28;20625;-78
2023/09/15 05:19:34;;;;;;;3.10;2.80;;;12.00;99.90;;;;;;5082087;28;20639;-78
2023/09/15 05:22:00;;;;;;;6.40;2.67;;;12.00;99.90;;;;;;5082061;28;21247;-77
2023/09/15 05:24:27;;;;;;;3.70;3.00;;;12.10;99.90;;;;;;5081584;28;20631;-78
2023/09/15 05:26:54;;;;;;;2.53;2.33;;;12.20;99.90;;;;;;5082851;28;20623;-80
2023/09/15 05:29:21;;;;;;;3.50;3.20;;;12.20;99.90;;;;;;5081743;28;20636;-80
2023/09/15 05:31:49;;;;;;;3.77;3.10;;;12.20;99.90;;;;;;5080039;28;21204;-77
2023/09/15 05:34:16;;;;;;;4.33;3.57;;;12.30;99.90;;;;;;5079474;28;21117;-76
2023/09/15 05:36:43;;;;;;;4.73;2.77;;;12.30;99.90;;;;;;5080355;28;20729;-77
2023/09/15 05:39:10;;;;;;;3.57;3.27;;;12.20;99.90;;;;;;5080551;28;20629;-77
2023/09/15 05:41:37;;;;;;;3.63;3.33;;;12.20;99.90;;;;;;5081137;28;21012;-77
2023/09/15 05:44:04;;;;;;;2.83;2.63;;;12.20;99.90;;;;;;5082138;28;20632;-77
2023/09/15 05:46:30;;;;;;;5.53;3.10;;;12.20;99.90;;;;;;5081744;28;21429;-77
2023/09/15 05:48:59;;;;;;;3.47;3.13;;;12.20;99.90;;;;;;5081402;28;20633;-77
2023/09/15 05:51:25;;;;;;;5.00;3.67;;;12.30;99.90;;;;;;5082192;28;20635;-77
2023/09/15 05:53:52;;;;;;;3.43;3.10;;;12.40;99.90;;;;;;5081445;28;20977;-77
2023/09/15 05:56:19;;;;;;;3.67;3.33;;;12.50;99.90;;;;;;5081715;28;20628;-78
2023/09/15 05:58:46;;;;;;;4.67;3.80;;;12.50;99.90;;;;;;5082215;28;20633;-77
2023/09/15 06:01:13;;;;;;;4.80;3.70;;;12.60;99.90;;;;;;5084444;28;20789;-78
2023/09/15 06:03:39;;;;;;;8.00;3.20;;;12.60;99.90;;;;;;5084637;28;20647;-78
2023/09/15 06:06:08;;;;;;;3.50;2.77;;;12.60;99.90;;;;;;5084781;28;21207;-78
2023/09/15 06:08:34;;;;;;;4.80;3.97;;;12.70;99.90;;;;;;5086151;28;20639;-78
2023/09/15 06:11:03;;;;;;;5.23;3.97;;;12.80;99.90;;;;;;5086064;28;20621;-77
2023/09/15 06:13:29;;;;;;;3.43;3.10;;;12.80;99.90;;;;;;5085899;28;20635;-77
2023/09/15 06:15:57;;;;;;;3.90;3.50;;;12.90;99.90;;;;;;5084324;28;21012;-77
2023/09/15 06:18:23;;;;;;;7.03;3.93;;;13.00;99.90;;;;;;5085245;28;20620;-77
2023/09/15 06:20:51;;;;;;;3.13;2.83;;;13.10;99.90;;;;;;5085683;28;20627;-77
2023/09/15 06:23:19;;;;;;;4.20;3.70;;;13.20;99.90;;;;;;5085763;28;20744;-77
2023/09/15 06:25:46;;;;;;;4.67;4.10;;;13.20;99.90;;;;;;5084837;28;21047;-77
2023/09/15 06:28:13;;;;;;;6.60;4.00;;;13.30;99.90;;;;;;5084338;28;21256;-77
2023/09/15 06:30:40;;;;;;;6.23;5.47;;;13.40;99.90;;;;;;5084149;28;20978;-77
2023/09/15 06:33:07;;;;;;;6.30;4.23;;;13.40;99.90;;;;;;5085369;28;21081;-77
2023/09/15 06:35:34;;;;;;;4.93;3.47;;;13.60;99.90;;;;;;5084722;28;20694;-77
2023/09/15 06:38:02;;;;;;;3.87;3.57;;;13.60;99.90;;;;;;5085123;28;20635;-77
2023/09/15 06:40:30;;;;;;;5.77;4.63;;;13.70;99.90;;;;;;5084372;28;20628;-77
2023/09/15 06:42:57;;;;;;;5.00;4.33;;;13.80;99.90;;;;;;5084588;28;20766;-77
2023/09/15 06:45:24;;;;;;;4.93;4.43;;;13.90;99.90;;;;;;5083675;28;20963;-78
2023/09/15 06:47:51;;;;;;;5.27;4.10;;;14.00;99.90;;;;;;5084647;28;21317;-77
2023/09/15 06:50:18;;;;;;;4.50;4.00;;;14.10;99.90;;;;;;5084332;28;20983;-77
2023/09/15 06:52:45;;;;;;;6.00;5.40;;;14.20;99.90;;;;;;5083585;28;20613;-77
2023/09/15 06:55:11;;;;;;;4.57;4.17;;;14.30;99.90;;;;;;5083614;28;20612;-78
2023/09/15 06:57:39;;;;;;;4.40;3.40;;;14.40;99.90;;;;;;5085390;28;20801;-77
2023/09/15 07:00:09;;;;;;;4.30;3.90;;;14.50;99.90;;;;;;5085065;28;21206;-77
2023/09/15 07:02:36;;;;;;;4.33;3.93;;;14.70;99.90;;;;;;5084653;28;20649;-77
2023/09/15 07:05:03;;;;;;;5.53;4.93;;;14.80;99.90;;;;;;5083636;28;22235;-77
2023/09/15 07:07:30;;;;;;;7.57;4.97;;;14.90;99.90;;;;;;5084723;28;20628;-77
2023/09/15 07:09:58;;;;;;;5.73;5.20;;;14.90;99.90;;;;;;5084739;28;20648;-77
2023/09/15 07:12:26;;;;;;;7.10;5.00;;;15.10;99.90;;;;;;5083365;28;20624;-78
2023/09/15 07:14:56;;;;;;;8.60;5.40;;;15.20;99.90;;;;;;5083372;28;20623;-78
2023/09/15 07:17:22;;;;;;;5.70;4.40;;;15.50;99.90;;;;;;5083684;28;21410;-77
2023/09/15 07:19:49;;;;;;;12.90;5.03;;;15.80;99.90;;;;;;5085242;28;20625;-78
2023/09/15 07:22:16;;;;;;;6.33;4.27;;;15.80;99.90;;;;;;5084522;28;20658;-78
2023/09/15 07:24:43;;;;;;;5.17;4.67;;;15.80;99.90;;;;;;5083251;28;20628;-77
2023/09/15 07:27:10;;;;;;;5.43;4.03;;;15.80;99.90;;;;;;5083381;28;20632;-77
2023/09/15 07:29:37;;;;;;;4.50;3.97;;;15.90;99.90;;;;;;5083704;28;20628;-77
2023/09/15 07:32:06;;;;;;;5.70;4.30;;;15.90;99.90;;;;;;5085453;28;20712;-77
2023/09/15 07:34:33;;;;;;;4.97;4.47;;;16.00;99.90;;;;;;5083497;28;21402;-77
2023/09/15 07:37:00;;;;;;;4.47;3.60;;;16.00;99.90;;;;;;5083128;28;20765;-77
2023/09/15 07:39:29;;;;;;;6.23;4.53;;;16.10;99.90;;;;;;5083348;28;20631;-78
2023/09/15 07:41:56;;;;;;;5.57;4.13;;;16.20;99.90;;;;;;5083267;28;21212;-78
2023/09/15 07:44:23;;;;;;;5.70;3.90;;;16.40;99.90;;;;;;5083564;28;20619;-77
2023/09/15 07:46:49;;;;;;;4.03;3.43;;;16.60;99.90;;;;;;5084998;28;20621;-77
2023/09/15 07:49:18;;;;;;;5.10;4.23;;;16.70;99.90;;;;;;5083422;28;20636;-78
2023/09/15 07:51:45;;;;;;;7.13;4.43;;;16.90;99.90;;;;;;5077442;28;20625;-77
2023/09/15 07:54:12;;;;;;;6.07;4.60;;;17.10;99.90;;;;;;5081344;28;20987;-77
2023/09/15 07:56:39;;;;;;;4.93;4.20;;;17.20;99.90;;;;;;5083983;28;20628;-78
2023/09/15 07:59:07;;;;;;;5.50;4.10;;;17.50;99.90;;;;;;5082801;28;20640;-77
2023/09/15 08:01:34;;;;;;;5.50;4.33;;;17.60;99.90;;;;;;5082019;28;20630;-77
2023/09/15 08:04:03;;;;;;;4.30;3.90;;;17.60;99.90;;;;;;5082492;28;21180;-77
2023/09/15 08:06:32;;;;;;;4.50;4.10;;;17.50;99.90;;;;;;5082525;28;20625;-78
2023/09/15 08:08:58;;;;;;;4.70;4.20;;;17.50;99.90;;;;;;5082235;28;20640;-78
2023/09/15 08:11:25;;;;;;;4.23;3.83;;;17.40;99.90;;;;;;5083783;28;20630;-78
2023/09/15 08:13:52;;;;;;;4.40;4.00;;;17.50;99.90;;;;;;5082239;28;21000;-78
2023/09/15 08:16:19;;;;;;;5.43;4.20;;;17.60;99.90;;;;;;5080023;28;21169;-77
2023/09/15 08:18:47;;;;;;;5.33;4.40;;;17.70;99.90;;;;;;5082946;28;20625;-77
2023/09/15 08:21:17;;;;;;;4.93;3.97;;;17.70;99.90;;;;;;5083097;28;20638;-77
2023/09/15 08:23:45;;;;;;;11.83;4.50;;;17.80;99.90;;;;;;5082560;28;20661;-77
2023/09/15 08:26:12;;;;;;;3.60;3.27;;;17.90;99.90;;;;;;5081568;28;20616;-77
2023/09/15 08:28:39;;;;;;;5.67;3.90;;;17.90;99.90;;;;;;5081903;28;21767;-77
2023/09/15 08:31:05;;;;;;;4.90;4.40;;;18.10;99.90;;;;;;5080632;28;21010;-77
2023/09/15 08:33:32;;;;;;;6.57;4.53;;;18.20;99.90;;;;;;5080947;28;20625;-77
2023/09/15 08:35:59;;;;;;;6.30;4.70;;;18.30;99.90;;;;;;5082070;28;20687;-77
2023/09/15 08:38:31;;;;;;;3.60;3.30;;;18.40;99.90;;;;;;5082470;28;21168;-77
2023/09/15 08:41:06;;;;;;;5.83;4.47;;;18.40;99.90;;;;;;5082674;28;20628;-77
2023/09/15 08:43:34;;;;;;;4.60;4.20;;;18.50;99.90;;;;;;5080885;28;20658;-78
2023/09/15 08:46:03;;;;;;;5.50;4.97;;;18.60;99.90;;;;;;5080591;28;20619;-77
2023/09/15 08:48:33;;;;;;;5.57;5.00;;;18.70;99.90;;;;;;5081824;28;20632;-76
2023/09/15 08:51:00;;;;;;;4.57;4.10;;;18.70;99.90;;;;;;5081504;28;21191;-78
2023/09/15 08:53:28;;;;;;;4.77;4.07;;;18.90;99.90;;;;;;5080842;28;20613;-77
2023/09/15 08:55:55;;;;;;;5.40;4.97;;;19.10;99.30;;;;;;5081864;28;21227;-77
2023/09/15 08:58:25;;;;;;;5.50;4.97;;;19.30;99.50;;;;;;5081062;28;21136;-78
2023/09/15 09:00:52;;;;;;;6.47;4.20;;;19.50;99.80;;;;;;5081328;28;21161;-78
2023/09/15 09:03:22;;;;;;;5.03;4.43;;;19.50;99.90;;;;;;5080781;28;21481;-78
2023/09/15 09:05:52;;;;;;;6.07;4.57;;;19.70;99.60;;;;;;5080708;28;20615;-77
2023/09/15 09:08:20;;;;;;;7.00;6.30;;;19.60;99.30;;;;;;5081103;28;20647;-78
2023/09/15 09:10:48;;;;;;;6.40;5.27;;;19.70;98.90;;;;;;5082365;28;20628;-78
2023/09/15 09:13:15;;;;;;;5.37;4.37;;;20.00;99.00;;;;;;5081679;28;20729;-78
2023/09/15 09:15:44;;;;;;;5.20;4.43;;;20.20;98.50;;;;;;5080927;28;20628;-77
2023/09/15 09:18:15;;;;;;;3.97;3.57;;;20.20;97.70;;;;;;5079546;28;21194;-78
2023/09/15 09:20:43;;;;;;;4.27;3.87;;;20.10;98.40;;;;;;5079648;28;20625;-77
2023/09/15 09:23:10;;;;;;;4.83;4.43;;;20.20;98.10;;;;;;5079695;28;20652;-78
2023/09/15 09:25:39;;;;;;;5.67;4.40;;;20.10;97.10;;;;;;5080963;28;21367;-78
2023/09/15 09:28:06;;;;;;;4.87;4.37;;;20.20;97.90;;;;;;5082536;28;21219;-78
2023/09/15 09:30:33;;;;;;;5.70;4.97;;;20.50;97.80;;;;;;5080616;28;20627;-78
2023/09/15 09:33:02;;;;;;;7.07;4.90;;;20.70;97.70;;;;;;5080907;28;20977;-78
2023/09/15 09:35:32;;;;;;;5.30;4.80;;;20.90;96.70;;;;;;5078677;28;20776;-78
2023/09/15 09:38:01;;;;;;;6.57;5.77;;;21.10;96.90;;;;;;5079166;28;21411;-77
2023/09/15 09:40:28;;;;;;;4.33;3.93;;;21.10;96.50;;;;;;5082009;28;20652;-77
2023/09/15 09:42:55;;;;;;;4.27;3.87;;;21.30;95.90;;;;;;5080879;28;21242;-78
2023/09/15 09:45:26;;;;;;;4.30;3.90;;;21.10;96.40;;;;;;5080786;28;20619;-77
2023/09/15 09:47:54;;;;;;;6.10;4.27;;;21.00;95.90;;;;;;5080892;28;20974;-77
2023/09/15 09:50:22;;;;;;;5.40;4.60;;;21.00;96.10;;;;;;5081728;28;20630;-77
2023/09/15 09:52:50;;;;;;;4.67;4.27;;;21.10;96.60;;;;;;5082051;28;21183;-78
2023/09/15 09:55:17;;;;;;;4.83;4.27;;;21.10;95.80;;;;;;5081144;28;20633;-77
2023/09/15 09:57:46;;;;;;;4.13;3.73;;;21.10;96.20;;;;;;5081273;28;20628;-77
2023/09/15 10:00:18;;;;;;;9.43;4.87;;;21.20;96.30;;;;;;5082241;28;20761;-78
2023/09/15 10:02:45;;;;;;;7.97;4.30;;;21.40;95.90;;;;;;5081149;28;20677;-77
2023/09/15 10:05:12;;;;;;;5.77;5.17;;;21.60;96.50;;;;;;5080682;28;20632;-77
2023/09/15 10:07:41;;;;;;;5.17;4.70;;;21.70;96.50;;;;;;5081094;28;20719;-77
2023/09/15 10:10:08;;;;;;;5.87;5.37;;;21.90;95.60;;;;;;5082159;28;20639;-78
2023/09/15 10:12:36;;;;;;;5.97;4.80;;;21.80;94.90;;;;;;5080585;28;20622;-77
2023/09/15 10:15:04;;;;;;;5.13;4.63;;;21.90;95.30;;;;;;5080785;28;20639;-77
2023/09/15 10:17:32;;;;;;;4.60;4.20;;;22.00;95.10;;;;;;5080452;28;20655;-77
2023/09/15 10:20:00;;;;;;;5.03;4.63;;;21.90;95.00;;;;;;5081081;28;20630;-78
2023/09/15 10:22:27;;;;;;;6.63;5.70;;;22.20;95.10;;;;;;5080966;28;21108;-78
2023/09/15 10:24:58;;;;;;;4.90;4.40;;;22.20;94.80;;;;;;5079927;28;20631;-77
2023/09/15 10:27:25;;;;;;;4.67;4.27;;;22.10;95.00;;;;;;5081163;28;20739;-77
2023/09/15 10:29:53;;;;;;;5.60;4.40;;;22.10;94.10;;;;;;5080890;28;21113;-77
2023/09/15 10:32:20;;;;;;;5.00;4.50;;;22.20;94.00;;;;;;5081556;28;20968;-78
2023/09/15 10:34:48;;;;;;;7.17;4.33;;;22.50;93.30;;;;;;5080745;28;20620;-77
2023/09/15 10:37:15;;;;;;;6.30;4.97;;;22.60;93.90;;;;;;5081041;28;20627;-77
2023/09/15 10:39:43;;;;;;;5.13;4.40;;;22.60;94.50;;;;;;5080482;28;20638;-78
2023/09/15 10:42:13;;;;;;;4.53;3.97;;;22.60;94.00;;;;;;5080119;28;20832;-77
2023/09/15 10:44:42;;;;;;;4.83;4.43;;;22.80;93.10;;;;;;5077936;28;20662;-77
2023/09/15 10:47:18;;;;;;;5.43;4.90;;;22.90;91.60;;;;;;5080879;28;20625;-78
2023/09/15 10:50:13;;;;;;;4.53;4.10;;;22.90;92.00;;;;;;5077944;28;20667;-78
2023/09/15 10:52:40;;;;;;;6.03;4.17;;;22.90;92.00;;;;;;5043352;28;20669;-77
2023/09/15 10:55:27;;;;;;;6.63;4.20;;;23.10;91.50;;;;;;5081131;28;20625;-77
2023/09/15 10:58:01;;;;;;;4.97;4.47;;;23.20;91.20;;;;;;5082672;28;20629;-78
2023/09/15 11:00:29;;;;;;;4.83;4.00;;;23.30;90.90;;;;;;5082391;28;20648;-78
2023/09/15 11:02:56;;;;;;;4.43;4.03;;;23.20;91.10;;;;;;5082427;28;20658;-78
2023/09/15 11:05:22;;;;;;;4.97;4.40;;;23.30;90.20;;;;;;5082943;28;20616;-78
2023/09/15 11:07:50;;;;;;;5.43;4.90;;;23.30;90.70;;;;;;5082593;28;20626;-77
2023/09/15 11:10:17;;;;;;;4.87;4.43;;;23.50;91.70;;;;;;5082470;28;20747;-77
2023/09/15 11:12:43;;;;;;;5.73;5.03;;;23.50;91.70;;;;;;5082752;28;21136;-77
2023/09/15 11:15:12;;;;;;;5.27;4.80;;;23.50;91.40;;;;;;5081665;28;20629;-76
2023/09/15 11:17:38;;;;;;;4.37;4.00;;;23.50;90.80;;;;;;5080643;28;20627;-77
2023/09/15 11:20:08;;;;;;;4.27;3.87;;;23.30;91.20;;;;;;5083539;28;20623;-77
2023/09/15 11:22:39;;;;;;;5.10;4.33;;;23.40;91.80;;;;;;5083970;28;20626;-77
2023/09/15 11:25:08;;;;;;;4.97;4.57;;;23.70;91.00;;;;;;5083864;28;20619;-77
2023/09/15 11:27:34;;;;;;;5.37;4.20;;;23.70;90.40;;;;;;5084370;28;20631;-76
2023/09/15 11:30:03;;;;;;;3.90;3.50;;;23.70;90.30;;;;;;5082452;28;20628;-77
2023/09/15 11:32:33;;;;;;;4.13;3.70;;;23.70;90.70;;;;;;5082689;28;20629;-77
2023/09/15 11:35:04;;;;;;;4.80;4.40;;;23.50;90.40;;;;;;5082053;28;20723;-76
2023/09/15 11:37:37;;;;;;;7.47;4.27;;;23.50;89.80;;;;;;5082941;28;20638;-77
2023/09/15 11:40:07;;;;;;;4.30;3.90;;;23.50;90.70;;;;;;5082194;28;20637;-79
2023/09/15 11:42:34;;;;;;;4.23;3.87;;;23.50;91.20;;;;;;5082251;28;20633;-76
2023/09/15 11:45:02;;;;;;;4.93;4.50;;;23.50;90.60;;;;;;5080409;28;21223;-77
2023/09/15 11:47:32;;;;;;;4.40;4.00;;;23.60;90.00;;;;;;5082104;28;20628;-76
2023/09/15 11:50:03;;;;;;;5.03;4.17;;;23.50;90.50;;;;;;5082637;28;21751;-77
2023/09/15 11:52:32;;;;;;;4.17;3.87;;;23.70;90.80;;;;;;5082504;28;20988;-76
2023/09/15 11:54:59;;;;;;;4.23;3.83;;;23.60;90.70;;;;;;5080766;28;20628;-77
2023/09/15 11:57:58;;;;;;;6.13;3.87;;;23.50;91.50;;;;;;5081145;28;21979;-76
2023/09/15 12:00:28;;;;;;;4.43;4.07;;;23.50;91.00;;;;;;5071662;28;20786;-77
2023/09/15 12:03:21;;;;;;;4.80;3.87;;;23.60;90.30;;;;;;5082625;28;20628;-78
2023/09/15 12:06:03;;;;;;;4.53;4.13;;;24.00;88.40;;;;;;5052876;28;20637;-76
2023/09/15 12:08:44;;;;;;;5.40;4.37;;;24.00;88.20;;;;;;5082001;28;20745;-78
2023/09/15 12:14:49;;;;;;;6.60;4.23;;;23.70;88.40;;;;;;5069867;28;20668;-76
2023/09/15 12:17:16;;;;;;;5.40;4.03;;;23.70;89.10;;;;;;5083124;28;22284;-75
2023/09/15 12:19:42;;;;;;;4.07;3.57;;;23.90;89.80;;;;;;5081731;28;20626;-76
2023/09/15 12:22:11;;;;;;;4.07;3.67;;;23.80;89.40;;;;;;5080820;28;20628;-76
2023/09/15 12:24:38;;;;;;;8.30;3.90;;;23.90;86.70;;;;;;5080916;28;20611;-76
2023/09/15 12:27:05;;;;;;;4.30;4.00;;;24.00;86.50;;;;;;5082375;28;20642;-78
2023/09/15 12:29:31;;;;;;;4.87;4.17;;;24.10;87.60;;;;;;5082966;28;21236;-78
2023/09/15 12:31:58;;;;;;;5.40;4.63;;;24.00;87.00;;;;;;5080471;28;21305;-77
2023/09/15 12:34:27;;;;;;;6.97;4.47;;;23.80;87.90;;;;;;5080863;28;20655;-77
2023/09/15 12:36:55;;;;;;;5.03;4.63;;;23.70;88.80;;;;;;5080495;28;20612;-77
2023/09/15 12:39:25;;;;;;;3.93;3.60;;;23.80;88.60;;;;;;5082569;28;20636;-77
2023/09/15 12:42:05;;;;;;;4.20;3.80;;;24.00;86.90;;;;;;5083377;28;20630;-77
2023/09/15 12:44:32;;;;;;;4.37;3.60;;;24.10;87.30;;;;;;5081364;28;20619;-77
2023/09/15 12:46:59;;;;;;;5.83;3.97;;;24.20;88.50;;;;;;5082151;28;20626;-76
2023/09/15 12:49:26;;;;;;;3.33;3.03;;;24.20;88.90;;;;;;5080763;28;20619;-76
2023/09/15 12:52:00;;;;;;;4.70;3.20;;;24.30;82.20;;;;;;5080715;28;20992;-78
2023/09/15 12:54:28;;;;;;;3.33;3.03;;;24.50;78.10;;;;;;5081895;28;20724;-77
2023/09/15 12:56:56;;;;;;;2.20;2.10;;;24.70;76.90;;;;;;5081804;28;21183;-77